Time;durP1;ratioP1;P1;durP2;ratioP2;P2;SDS_P1;SDS_P2;PMS_P1;PMS_P2;Temp;Humidity;BMP_temperature;BMP_pressure;BME280_temperature;BME280_humidity;BME280_pressure;Samples;Min_cycle;Max_cycle;Signal;HPM_P1;HPM_P2
2021/04/29 00:00:14;;;;;;;32.20;19.60;;;12.80;99.90;;;;;;5074314;28;20170;-81
2021/04/29 00:02:40;;;;;;;41.75;20.17;;;12.70;99.90;;;;;;5074757;28;20174;-81
2021/04/29 00:05:08;;;;;;;34.38;19.08;;;12.80;99.90;;;;;;5075989;28;20547;-80
2021/04/29 00:07:35;;;;;;;31.35;19.65;;;12.70;99.90;;;;;;5075368;28;20245;-79
2021/04/29 00:10:01;;;;;;;38.47;21.05;;;12.50;99.90;;;;;;5076175;28;20199;-80
2021/04/29 00:12:27;;;;;;;30.75;21.63;;;12.50;99.90;;;;;;5074805;28;20607;-80
2021/04/29 00:14:52;;;;;;;34.67;20.70;;;12.50;99.90;;;;;;5075688;28;20169;-81
2021/04/29 00:17:18;;;;;;;30.50;20.67;;;12.40;99.90;;;;;;5074602;28;20511;-81
2021/04/29 00:19:44;;;;;;;37.88;22.33;;;12.40;99.90;;;;;;5074450;28;20629;-81
2021/04/29 00:22:09;;;;;;;40.03;22.70;;;12.30;99.90;;;;;;5075988;28;20167;-81
2021/04/29 00:24:35;;;;;;;32.17;23.15;;;12.30;99.90;;;;;;5074340;28;20191;-80
2021/04/29 00:27:00;;;;;;;54.60;23.45;;;12.10;99.90;;;;;;5075800;28;20170;-80
2021/04/29 00:29:26;;;;;;;42.92;26.15;;;11.90;99.90;;;;;;5057623;28;20219;-80
2021/04/29 00:31:52;;;;;;;44.55;26.40;;;11.80;99.90;;;;;;5074196;28;20250;-81
2021/04/29 00:34:18;;;;;;;44.47;27.73;;;11.70;99.90;;;;;;5075485;28;20194;-81
2021/04/29 00:36:43;;;;;;;46.10;27.38;;;11.70;99.90;;;;;;5057667;28;20611;-80
2021/04/29 00:39:09;;;;;;;43.45;27.48;;;11.60;99.90;;;;;;5074256;28;20167;-80
2021/04/29 00:41:35;;;;;;;43.60;27.05;;;11.60;99.90;;;;;;5074205;28;20174;-79
2021/04/29 00:44:00;;;;;;;42.67;25.73;;;11.60;99.90;;;;;;5075294;28;20182;-79
2021/04/29 00:46:28;;;;;;;39.45;27.27;;;11.50;99.90;;;;;;5075741;28;20254;-79
2021/04/29 00:48:53;;;;;;;48.03;27.38;;;11.50;99.90;;;;;;5075385;28;20197;-79
2021/04/29 00:51:20;;;;;;;37.30;26.27;;;11.60;99.90;;;;;;5075088;28;20199;-79
2021/04/29 00:53:47;;;;;;;41.88;26.75;;;11.50;99.90;;;;;;5073748;28;20189;-79
2021/04/29 00:56:13;;;;;;;40.65;26.65;;;11.60;99.90;;;;;;5075156;28;20167;-79
2021/04/29 00:58:40;;;;;;;43.70;26.60;;;11.70;99.90;;;;;;5057230;28;20673;-79
2021/04/29 01:01:06;;;;;;;42.92;27.77;;;11.60;99.90;;;;;;5074943;28;20162;-79
2021/04/29 01:03:43;;;;;;;37.47;26.13;;;11.60;99.90;;;;;;5070623;28;20539;-79
2021/04/29 01:06:15;;;;;;;42.35;26.48;;;11.70;99.90;;;;;;5073827;28;20171;-79
2021/04/29 01:08:58;;;;;;;45.88;27.17;;;11.70;99.90;;;;;;5074851;28;20159;-79
2021/04/29 01:11:28;;;;;;;32.10;24.98;;;11.70;99.90;;;;;;5074894;28;20142;-79
2021/04/29 01:13:57;;;;;;;35.03;25.55;;;11.60;99.90;;;;;;5075058;28;20336;-79
2021/04/29 01:16:24;;;;;;;40.83;26.23;;;11.50;99.90;;;;;;5074831;28;20184;-79
2021/04/29 01:18:53;;;;;;;40.00;25.25;;;11.60;99.90;;;;;;5073493;28;20587;-79
2021/04/29 01:21:21;;;;;;;36.88;25.48;;;11.50;99.90;;;;;;5073516;28;20162;-79
2021/04/29 01:24:04;;;;;;;37.58;25.77;;;11.50;99.90;;;;;;5074374;28;20220;-79
2021/04/29 01:26:29;;;;;;;35.38;25.23;;;11.60;99.90;;;;;;5074910;28;20155;-79
2021/04/29 01:28:57;;;;;;;36.50;25.80;;;11.50;99.90;;;;;;5073304;28;20490;-79
2021/04/29 01:31:29;;;;;;;31.95;24.45;;;11.50;99.90;;;;;;5054343;28;20183;-79
2021/04/29 01:33:57;;;;;;;41.75;25.52;;;11.50;99.90;;;;;;5074785;28;20606;-79
2021/04/29 01:36:24;;;;;;;39.85;25.30;;;11.40;99.90;;;;;;5074441;28;20163;-79
2021/04/29 01:38:51;;;;;;;40.92;26.15;;;11.40;99.90;;;;;;5074235;28;20205;-79
2021/04/29 01:41:17;;;;;;;40.97;26.75;;;11.40;99.90;;;;;;5073088;28;20169;-79
2021/04/29 01:43:43;;;;;;;43.30;27.15;;;11.30;99.90;;;;;;5074019;28;20197;-78
2021/04/29 01:46:11;;;;;;;39.38;27.60;;;11.30;99.90;;;;;;5074041;28;20186;-79
2021/04/29 01:48:37;;;;;;;42.70;27.83;;;11.30;99.90;;;;;;5056912;28;20171;-78
2021/04/29 01:51:03;;;;;;;37.22;27.50;;;11.10;99.90;;;;;;5053000;28;20186;-79
2021/04/29 01:53:29;;;;;;;45.45;28.77;;;11.10;99.90;;;;;;5069364;28;20167;-79
2021/04/29 01:55:55;;;;;;;42.63;28.42;;;11.10;99.90;;;;;;5052977;28;20246;-79
2021/04/29 01:58:22;;;;;;;43.78;28.50;;;11.10;99.90;;;;;;5069150;28;20258;-79
2021/04/29 02:00:49;;;;;;;39.40;27.42;;;11.10;99.90;;;;;;5070513;28;20660;-79
2021/04/29 02:03:15;;;;;;;47.10;28.50;;;11.10;99.90;;;;;;5073508;28;20641;-79
2021/04/29 02:05:40;;;;;;;38.85;28.35;;;11.20;99.90;;;;;;5073699;28;20174;-79
2021/04/29 02:08:06;;;;;;;46.47;29.65;;;11.20;99.90;;;;;;5073861;28;20170;-79
2021/04/29 02:10:32;;;;;;;40.40;28.70;;;11.20;99.90;;;;;;5073612;28;20190;-79
2021/04/29 02:12:58;;;;;;;41.42;28.77;;;11.10;99.90;;;;;;5073507;28;20166;-79
2021/04/29 02:15:31;;;;;;;39.60;29.38;;;11.00;99.90;;;;;;5071838;28;20305;-79
2021/04/29 02:18:02;;;;;;;41.08;29.33;;;11.00;99.90;;;;;;5073571;28;20534;-79
2021/04/29 02:20:30;;;;;;;40.75;28.98;;;10.90;99.90;;;;;;5073161;28;20500;-79
2021/04/29 02:22:56;;;;;;;44.60;29.98;;;10.90;99.90;;;;;;5072407;28;20177;-79
2021/04/29 02:25:28;;;;;;;51.15;30.73;;;11.00;99.90;;;;;;5055766;28;20200;-79
2021/04/29 02:27:58;;;;;;;50.17;29.00;;;11.00;99.90;;;;;;5055740;28;20607;-79
2021/04/29 02:30:26;;;;;;;40.65;28.70;;;10.90;99.90;;;;;;5073287;28;20151;-79
2021/04/29 02:32:52;;;;;;;43.85;30.42;;;10.90;99.90;;;;;;5073586;28;20174;-79
2021/04/29 02:35:18;;;;;;;43.28;29.38;;;10.80;99.90;;;;;;5073625;28;20194;-79
2021/04/29 02:37:52;;;;;;;45.55;29.77;;;10.80;99.90;;;;;;5055613;28;20607;-79
2021/04/29 02:40:19;;;;;;;41.13;28.50;;;10.80;99.90;;;;;;5072516;28;20162;-79
2021/04/29 02:42:45;;;;;;;38.20;27.80;;;10.80;99.90;;;;;;5072587;28;20166;-79
2021/04/29 02:45:14;;;;;;;43.40;29.52;;;10.90;99.90;;;;;;5073611;28;20190;-79
2021/04/29 02:47:50;;;;;;;44.85;29.23;;;10.90;99.90;;;;;;5073063;28;20171;-79
2021/04/29 02:50:22;;;;;;;44.95;28.45;;;11.00;99.90;;;;;;5073196;28;20484;-79
2021/04/29 02:52:51;;;;;;;40.83;26.33;;;11.10;99.90;;;;;;5075583;28;20151;-79
2021/04/29 02:55:18;;;;;;;35.28;26.30;;;11.10;99.90;;;;;;5074634;28;20197;-79
2021/04/29 02:57:44;;;;;;;40.10;26.77;;;11.10;99.90;;;;;;5073534;28;20195;-79
2021/04/29 03:00:13;;;;;;;37.70;27.13;;;11.00;99.90;;;;;;5073109;28;20206;-79
2021/04/29 03:02:39;;;;;;;41.15;27.50;;;11.10;99.90;;;;;;5071744;28;20698;-79
2021/04/29 03:05:10;;;;;;;35.58;25.83;;;11.00;99.90;;;;;;5071981;28;20198;-79
2021/04/29 03:07:37;;;;;;;35.40;25.73;;;11.00;99.90;;;;;;5073527;28;20171;-79
2021/04/29 03:10:03;;;;;;;37.50;26.55;;;11.00;99.90;;;;;;5072018;28;20595;-79
2021/04/29 03:12:29;;;;;;;41.28;26.83;;;11.10;99.90;;;;;;5073539;28;20163;-79
2021/04/29 03:14:55;;;;;;;31.90;25.52;;;11.10;99.90;;;;;;5071673;28;20617;-79
2021/04/29 03:17:20;;;;;;;37.53;27.80;;;11.20;99.90;;;;;;5072146;28;20178;-79
2021/04/29 03:19:46;;;;;;;35.50;27.70;;;11.20;99.90;;;;;;5072613;28;20627;-78
2021/04/29 03:22:12;;;;;;;35.90;26.30;;;11.20;99.90;;;;;;5071132;28;20174;-78
2021/04/29 03:24:38;;;;;;;34.05;25.77;;;11.20;99.90;;;;;;5071807;28;20190;-79
2021/04/29 03:27:04;;;;;;;35.15;25.88;;;11.20;99.90;;;;;;5055143;28;20174;-78
2021/04/29 03:29:29;;;;;;;34.08;24.80;;;11.00;99.90;;;;;;5072923;28;20468;-79
2021/04/29 03:31:55;;;;;;;34.42;24.77;;;11.10;99.90;;;;;;5071836;28;20205;-79
2021/04/29 03:34:21;;;;;;;35.47;26.48;;;11.20;99.90;;;;;;5072990;28;20171;-79
2021/04/29 03:36:46;;;;;;;34.20;26.08;;;11.10;99.90;;;;;;5071746;28;20174;-79
2021/04/29 03:39:12;;;;;;;37.08;27.30;;;11.00;99.90;;;;;;5071544;28;20702;-79
2021/04/29 03:41:37;;;;;;;41.35;28.15;;;11.00;99.90;;;;;;5073388;28;20163;-79
2021/04/29 03:44:03;;;;;;;44.05;28.15;;;11.00;99.90;;;;;;5075976;28;20194;-79
2021/04/29 03:46:29;;;;;;;43.35;28.67;;;11.00;99.90;;;;;;5076921;28;20246;-79
2021/04/29 03:48:54;;;;;;;40.30;28.20;;;11.00;99.90;;;;;;5076506;28;20159;-79
2021/04/29 03:51:20;;;;;;;40.33;29.40;;;10.90;99.90;;;;;;5074889;28;20228;-79
2021/04/29 03:53:46;;;;;;;40.85;29.05;;;10.90;99.90;;;;;;5074958;28;20174;-79
2021/04/29 03:56:11;;;;;;;43.42;29.30;;;10.80;99.90;;;;;;5075236;28;20599;-79
2021/04/29 03:58:37;;;;;;;45.90;29.20;;;10.80;99.90;;;;;;5074628;28;20170;-79
2021/04/29 04:01:02;;;;;;;40.22;29.50;;;10.90;99.90;;;;;;5075115;28;20177;-79
2021/04/29 04:03:28;;;;;;;46.17;30.38;;;10.80;99.90;;;;;;5058437;28;20186;-79
2021/04/29 04:05:54;;;;;;;42.33;29.63;;;10.80;99.90;;;;;;5075024;28;20174;-79
2021/04/29 04:08:20;;;;;;;52.70;34.50;;;11.00;99.90;;;;;;5075967;28;20615;-79
2021/04/29 04:10:45;;;;;;;47.28;35.45;;;11.00;99.90;;;;;;5075957;28;20159;-79
2021/04/29 04:13:19;;;;;;;57.33;36.20;;;11.10;99.90;;;;;;5074545;28;20213;-79
2021/04/29 04:15:45;;;;;;;50.28;36.03;;;11.10;99.90;;;;;;5076115;28;20216;-79
2021/04/29 04:18:11;;;;;;;59.63;38.55;;;11.10;99.90;;;;;;5074523;28;20561;-79
2021/04/29 04:20:37;;;;;;;56.30;38.72;;;11.10;99.90;;;;;;5075762;28;20166;-79
2021/04/29 04:23:03;;;;;;;59.60;39.03;;;11.10;99.90;;;;;;5074601;28;20174;-79
2021/04/29 04:25:29;;;;;;;51.22;36.83;;;11.20;99.90;;;;;;5075836;28;20199;-79
2021/04/29 04:27:54;;;;;;;48.90;36.25;;;11.20;99.90;;;;;;5074479;28;20180;-79
2021/04/29 04:30:20;;;;;;;52.40;38.17;;;11.20;99.90;;;;;;5074671;28;20163;-79
2021/04/29 04:32:46;;;;;;;57.75;37.88;;;11.10;99.90;;;;;;5074341;28;20175;-79
2021/04/29 04:35:12;;;;;;;54.95;38.00;;;11.20;99.90;;;;;;5075724;28;20175;-79
2021/04/29 04:37:38;;;;;;;51.38;37.05;;;11.20;99.90;;;;;;5075561;28;20216;-79
2021/04/29 04:40:04;;;;;;;58.25;37.17;;;11.30;99.90;;;;;;5075539;28;20163;-79
2021/04/29 04:42:30;;;;;;;45.15;32.80;;;11.30;99.90;;;;;;5075323;28;20181;-79
2021/04/29 04:44:56;;;;;;;43.85;32.92;;;11.20;99.90;;;;;;5073877;28;20281;-79
2021/04/29 04:47:22;;;;;;;48.65;34.38;;;11.20;99.90;;;;;;5074235;28;20258;-79
2021/04/29 04:49:47;;;;;;;44.35;33.05;;;11.30;99.90;;;;;;5073781;28;20255;-79
2021/04/29 04:52:13;;;;;;;43.05;29.55;;;11.30;99.90;;;;;;5075074;28;20174;-79
2021/04/29 04:54:39;;;;;;;49.38;31.42;;;11.30;99.90;;;;;;5074803;28;20244;-78
2021/04/29 04:57:05;;;;;;;45.90;32.00;;;11.20;99.90;;;;;;5053750;28;20175;-79
2021/04/29 04:59:30;;;;;;;44.80;31.50;;;11.20;99.90;;;;;;5070672;28;20202;-79
2021/04/29 05:01:56;;;;;;;42.63;32.03;;;11.30;99.90;;;;;;5054965;28;20211;-79
2021/04/29 05:04:26;;;;;;;52.45;36.83;;;11.20;99.90;;;;;;5055118;28;20232;-79
2021/04/29 05:06:53;;;;;;;51.70;36.05;;;11.30;99.90;;;;;;5055549;28;20160;-79
2021/04/29 05:09:19;;;;;;;50.85;35.97;;;11.40;99.90;;;;;;5054716;28;20163;-79
2021/04/29 05:11:45;;;;;;;51.88;36.45;;;11.30;99.90;;;;;;5069369;28;20186;-79
2021/04/29 05:14:11;;;;;;;47.38;36.15;;;11.30;99.90;;;;;;5073646;28;20224;-79
2021/04/29 05:16:37;;;;;;;54.05;38.42;;;11.30;99.90;;;;;;5073399;28;20171;-79
2021/04/29 05:19:03;;;;;;;55.53;39.15;;;11.30;99.90;;;;;;5074985;28;20169;-79
2021/04/29 05:21:28;;;;;;;53.60;37.58;;;11.40;99.90;;;;;;5072923;28;20170;-79
2021/04/29 05:23:54;;;;;;;45.72;32.50;;;11.40;99.90;;;;;;5073412;28;20201;-79
2021/04/29 05:26:20;;;;;;;49.08;31.80;;;11.30;99.90;;;;;;5056743;28;20171;-78
2021/04/29 05:28:45;;;;;;;43.92;30.25;;;11.30;99.90;;;;;;5074933;28;20197;-78
2021/04/29 05:31:11;;;;;;;43.65;32.22;;;11.20;99.90;;;;;;5073708;28;20212;-78
2021/04/29 05:33:36;;;;;;;44.15;31.95;;;11.20;99.90;;;;;;5073982;28;20210;-78
2021/04/29 05:36:02;;;;;;;46.13;30.80;;;11.30;99.90;;;;;;5073004;28;20167;-78
2021/04/29 05:38:28;;;;;;;39.10;28.73;;;11.40;99.90;;;;;;5074449;28;20166;-79
2021/04/29 05:40:54;;;;;;;39.55;27.80;;;11.50;99.90;;;;;;5072875;28;20240;-79
2021/04/29 05:43:19;;;;;;;37.78;26.58;;;11.50;99.90;;;;;;5073354;28;20220;-78
2021/04/29 05:45:45;;;;;;;34.55;25.58;;;11.60;99.90;;;;;;5073073;28;20166;-79
2021/04/29 05:48:10;;;;;;;34.08;24.27;;;11.50;99.90;;;;;;5072814;28;20178;-79
2021/04/29 05:50:36;;;;;;;32.08;22.80;;;11.40;99.90;;;;;;5073946;28;20224;-78
2021/04/29 05:53:02;;;;;;;32.13;22.77;;;11.50;99.90;;;;;;5074605;28;20592;-79
2021/04/29 05:55:27;;;;;;;30.75;23.02;;;11.60;99.90;;;;;;5074067;28;20189;-78
2021/04/29 05:57:57;;;;;;;31.27;24.38;;;11.80;99.90;;;;;;5073667;28;20171;-78
2021/04/29 06:00:26;;;;;;;33.83;22.20;;;12.00;99.90;;;;;;5072675;28;20171;-79
2021/04/29 06:02:53;;;;;;;25.80;21.67;;;12.10;99.90;;;;;;5072062;28;20206;-79
2021/04/29 06:05:19;;;;;;;24.33;20.98;;;12.10;99.90;;;;;;5073216;28;20658;-78
2021/04/29 06:07:45;;;;;;;26.88;21.70;;;12.10;99.90;;;;;;5074001;28;20206;-79
2021/04/29 06:10:11;;;;;;;31.90;21.65;;;12.00;99.90;;;;;;5083542;28;20696;-79
2021/04/29 06:12:37;;;;;;;26.30;20.95;;;12.00;99.90;;;;;;5092815;28;20197;-79
2021/04/29 06:15:03;;;;;;;29.17;22.58;;;12.10;99.90;;;;;;5092910;28;20166;-79
2021/04/29 06:17:28;;;;;;;33.28;22.08;;;11.90;99.90;;;;;;5092756;28;20544;-79
2021/04/29 06:19:54;;;;;;;26.75;21.70;;;12.00;99.90;;;;;;5085628;28;20187;-79
2021/04/29 06:22:19;;;;;;;27.05;22.63;;;12.00;99.90;;;;;;5072488;28;20254;-79
2021/04/29 06:24:45;;;;;;;28.45;22.25;;;12.20;99.90;;;;;;5073681;28;20190;-79
2021/04/29 06:27:11;;;;;;;29.25;22.38;;;12.40;99.90;;;;;;5072447;28;20194;-79
2021/04/29 06:29:36;;;;;;;27.42;19.30;;;12.50;99.90;;;;;;5072147;28;20194;-78
2021/04/29 06:32:02;;;;;;;21.35;17.95;;;12.40;99.90;;;;;;5073655;28;20167;-79
2021/04/29 06:34:28;;;;;;;22.38;18.67;;;12.30;99.90;;;;;;5073383;28;20178;-79
2021/04/29 06:36:54;;;;;;;14.77;13.23;;;12.20;99.90;;;;;;5073685;28;20191;-78
2021/04/29 06:39:20;;;;;;;22.05;13.55;;;12.10;99.90;;;;;;5071983;28;20520;-78
2021/04/29 06:41:46;;;;;;;20.20;14.68;;;12.10;99.90;;;;;;5072307;28;20166;-78
2021/04/29 06:44:13;;;;;;;15.50;12.52;;;12.20;99.90;;;;;;5073339;28;20534;-78
2021/04/29 06:46:39;;;;;;;16.40;11.32;;;12.10;99.90;;;;;;5072215;28;20166;-78
2021/04/29 06:49:06;;;;;;;19.60;10.73;;;12.10;99.90;;;;;;5073197;28;20163;-78
2021/04/29 06:51:32;;;;;;;10.40;7.63;;;11.90;99.90;;;;;;5073495;28;20159;-78
2021/04/29 06:53:58;;;;;;;9.52;7.90;;;11.60;99.90;;;;;;5072050;28;20202;-78
2021/04/29 06:56:23;;;;;;;9.68;7.93;;;11.60;99.90;;;;;;5073552;28;20224;-78
2021/04/29 06:58:49;;;;;;;8.57;7.22;;;11.60;99.90;;;;;;5073581;28;20171;-79
2021/04/29 07:01:15;;;;;;;11.60;7.57;;;11.60;99.90;;;;;;5073417;28;20165;-80
2021/04/29 07:03:40;;;;;;;8.93;8.13;;;11.50;99.90;;;;;;5055604;28;20499;-79
2021/04/29 07:06:06;;;;;;;12.18;8.13;;;11.40;99.90;;;;;;5073343;28;20163;-79
2021/04/29 07:08:32;;;;;;;9.40;8.38;;;11.30;99.90;;;;;;5072001;28;20183;-78
2021/04/29 07:10:57;;;;;;;9.00;8.20;;;11.20;99.90;;;;;;5071002;28;20213;-78
2021/04/29 07:13:23;;;;;;;14.73;9.80;;;11.10;99.90;;;;;;5072133;28;20167;-78
2021/04/29 07:15:48;;;;;;;14.13;9.95;;;10.80;99.90;;;;;;5055765;28;20162;-78
2021/04/29 07:18:14;;;;;;;13.93;10.07;;;10.80;99.90;;;;;;5077346;28;20614;-79
2021/04/29 07:20:41;;;;;;;20.05;11.20;;;10.90;99.90;;;;;;5076661;28;20288;-80
2021/04/29 07:23:07;;;;;;;12.75;11.48;;;11.10;99.90;;;;;;5075733;28;20178;-80
2021/04/29 07:25:34;;;;;;;14.77;13.25;;;11.20;99.90;;;;;;5076631;28;20178;-80
2021/04/29 07:28:00;;;;;;;22.88;14.38;;;11.20;99.90;;;;;;5076978;28;20171;-80
2021/04/29 07:30:26;;;;;;;22.10;14.60;;;11.10;99.90;;;;;;5076536;28;20171;-80
2021/04/29 07:32:51;;;;;;;20.75;14.27;;;11.00;99.90;;;;;;5075233;28;20182;-81
2021/04/29 07:35:17;;;;;;;23.98;14.88;;;11.00;99.90;;;;;;5075542;28;20174;-80
2021/04/29 07:37:43;;;;;;;24.95;18.08;;;11.10;99.90;;;;;;5076544;28;20154;-78
2021/04/29 07:40:09;;;;;;;25.58;18.45;;;11.00;99.90;;;;;;5055169;28;20168;-78
2021/04/29 07:42:35;;;;;;;31.73;19.13;;;10.90;99.90;;;;;;5055068;28;20167;-77
2021/04/29 07:45:00;;;;;;;31.77;19.05;;;10.80;99.90;;;;;;5055368;28;20241;-78
2021/04/29 07:47:26;;;;;;;29.15;20.10;;;10.80;99.90;;;;;;5056615;28;20222;-78
2021/04/29 07:49:51;;;;;;;30.08;19.85;;;10.90;99.90;;;;;;5058723;28;20487;-78
2021/04/29 07:52:17;;;;;;;32.38;19.30;;;10.90;99.90;;;;;;5074970;28;20209;-78
2021/04/29 07:54:43;;;;;;;25.95;16.40;;;10.90;99.90;;;;;;5076326;28;20198;-78
2021/04/29 07:57:08;;;;;;;37.70;17.45;;;10.80;99.90;;;;;;5076113;28;20186;-78
2021/04/29 07:59:34;;;;;;;21.83;13.80;;;10.80;99.90;;;;;;5075540;28;20197;-78
2021/04/29 08:02:00;;;;;;;14.65;11.77;;;10.70;99.90;;;;;;5076231;28;20186;-77
2021/04/29 08:04:29;;;;;;;15.23;10.50;;;10.50;99.90;;;;;;5075827;28;20189;-77
2021/04/29 08:06:55;;;;;;;15.60;8.85;;;10.30;99.90;;;;;;5074604;28;20173;-78
2021/04/29 08:09:20;;;;;;;10.93;8.43;;;10.30;99.90;;;;;;5075646;28;20510;-78
2021/04/29 08:11:46;;;;;;;11.70;7.88;;;10.30;99.90;;;;;;5075172;28;20178;-78
2021/04/29 08:14:12;;;;;;;9.93;7.63;;;10.30;99.90;;;;;;5076006;28;20267;-78
2021/04/29 08:16:37;;;;;;;10.15;7.18;;;10.30;99.90;;;;;;5076125;28;20167;-77
2021/04/29 08:19:03;;;;;;;13.90;7.40;;;10.10;99.90;;;;;;5074755;28;20186;-77
2021/04/29 08:21:29;;;;;;;7.45;6.50;;;10.10;99.90;;;;;;5075918;28;20167;-78
2021/04/29 08:23:57;;;;;;;10.82;6.68;;;10.00;99.90;;;;;;5075863;28;20244;-78
2021/04/29 08:26:23;;;;;;;7.05;5.72;;;10.20;99.90;;;;;;5074542;28;20213;-78
2021/04/29 08:28:49;;;;;;;6.90;6.15;;;10.40;99.90;;;;;;5074963;28;20206;-78
2021/04/29 08:31:14;;;;;;;6.30;5.80;;;10.70;99.90;;;;;;5076032;28;20550;-77
2021/04/29 08:33:40;;;;;;;6.78;6.07;;;10.70;99.90;;;;;;5075547;28;20246;-77
2021/04/29 08:36:06;;;;;;;8.23;6.25;;;10.70;99.90;;;;;;5075602;28;20241;-78
2021/04/29 08:38:31;;;;;;;5.15;4.65;;;10.60;99.90;;;;;;5054360;28;20178;-77
2021/04/29 08:40:57;;;;;;;4.97;4.38;;;10.50;99.90;;;;;;5072072;28;20174;-76
2021/04/29 08:43:23;;;;;;;4.60;4.20;;;10.40;99.90;;;;;;5075441;28;20205;-76
2021/04/29 08:45:48;;;;;;;7.10;4.80;;;10.40;99.90;;;;;;5075197;28;20208;-76
2021/04/29 08:48:20;;;;;;;4.82;4.43;;;10.50;99.90;;;;;;5074888;28;20261;-78
2021/04/29 08:50:46;;;;;;;5.95;4.65;;;10.70;99.90;;;;;;5073429;28;20648;-78
2021/04/29 08:53:11;;;;;;;6.80;3.90;;;10.90;99.90;;;;;;5074993;28;20162;-79
2021/04/29 08:55:37;;;;;;;4.20;3.80;;;10.90;99.90;;;;;;5075188;28;20175;-78
2021/04/29 08:58:04;;;;;;;6.53;4.20;;;11.10;99.90;;;;;;5073936;28;20166;-76
2021/04/29 09:00:30;;;;;;;4.03;3.67;;;11.20;99.90;;;;;;5073634;28;20173;-76
2021/04/29 09:02:57;;;;;;;8.70;4.88;;;11.40;99.90;;;;;;5073025;28;20627;-76
2021/04/29 09:05:34;;;;;;;4.93;4.43;;;11.80;99.90;;;;;;5073643;28;20182;-76
2021/04/29 09:08:08;;;;;;;4.68;4.25;;;12.00;99.90;;;;;;5074427;28;20599;-77
2021/04/29 09:10:38;;;;;;;4.70;4.30;;;11.90;99.90;;;;;;5074403;28;20173;-78
2021/04/29 09:13:22;;;;;;;6.20;4.90;;;12.10;99.90;;;;;;5074577;28;20167;-78
2021/04/29 09:15:49;;;;;;;5.15;4.30;;;12.30;99.90;;;;;;5074584;28;20163;-77
2021/04/29 09:18:19;;;;;;;6.30;4.63;;;12.20;99.90;;;;;;5074528;28;20170;-78
2021/04/29 09:20:50;;;;;;;6.55;5.03;;;11.60;99.90;;;;;;5072472;28;20185;-78
2021/04/29 09:23:18;;;;;;;5.95;5.03;;;11.70;99.90;;;;;;5074628;28;20241;-79
2021/04/29 09:26:07;;;;;;;5.68;5.10;;;11.70;99.90;;;;;;5072940;28;20190;-81
2021/04/29 09:28:46;;;;;;;8.13;6.43;;;11.60;99.90;;;;;;5075440;28;20155;-80
2021/04/29 09:31:17;;;;;;;7.43;6.82;;;11.50;99.90;;;;;;5093412;28;20165;-79
2021/04/29 09:33:59;;;;;;;10.23;9.18;;;11.50;99.90;;;;;;5094174;28;20170;-80
2021/04/29 09:36:28;;;;;;;10.48;9.55;;;11.40;99.90;;;;;;5093451;28;20513;-80
2021/04/29 09:39:00;;;;;;;12.82;9.38;;;11.10;99.90;;;;;;5090229;28;20176;-78
2021/04/29 09:41:39;;;;;;;14.55;10.32;;;11.00;99.90;;;;;;5073252;28;20205;-78
2021/04/29 09:44:10;;;;;;;14.55;11.23;;;10.80;99.90;;;;;;5072474;28;20560;-78
2021/04/29 09:46:43;;;;;;;14.00;10.73;;;10.80;99.90;;;;;;5072513;28;20209;-77
2021/04/29 09:49:32;;;;;;;19.20;11.15;;;11.00;99.90;;;;;;5073597;28;20521;-78
2021/04/29 09:52:00;;;;;;;13.52;12.00;;;10.80;99.90;;;;;;5072705;28;20250;-78
2021/04/29 09:54:35;;;;;;;17.45;13.30;;;10.70;99.90;;;;;;5072533;28;20257;-80
2021/04/29 09:57:06;;;;;;;21.33;14.43;;;10.60;99.90;;;;;;5072469;28;20174;-81
2021/04/29 09:59:41;;;;;;;16.38;12.75;;;10.70;99.90;;;;;;5072591;28;20150;-82
2021/04/29 10:02:07;;;;;;;15.30;11.68;;;10.80;99.90;;;;;;5073472;28;20263;-81
2021/04/29 10:04:33;;;;;;;13.77;10.43;;;11.00;99.90;;;;;;5073449;28;20183;-81
2021/04/29 10:07:03;;;;;;;11.88;9.88;;;11.30;99.90;;;;;;5079527;28;20174;-81
2021/04/29 10:09:30;;;;;;;12.55;10.13;;;11.60;99.90;;;;;;5083024;28;20223;-81
2021/04/29 10:12:02;;;;;;;13.05;10.27;;;11.50;99.90;;;;;;5086841;28;20189;-81
2021/04/29 10:14:35;;;;;;;13.18;11.25;;;11.30;99.90;;;;;;5086744;28;20175;-81
2021/04/29 10:17:06;;;;;;;12.10;10.73;;;11.10;99.90;;;;;;5074145;28;20151;-79
2021/04/29 10:19:45;;;;;;;14.93;12.02;;;11.10;99.90;;;;;;5068925;28;20175;-78
2021/04/29 10:22:15;;;;;;;13.95;10.20;;;11.20;99.90;;;;;;5072635;28;20494;-80
2021/04/29 10:24:42;;;;;;;12.00;10.88;;;11.30;99.90;;;;;;5073314;28;20190;-79
2021/04/29 10:27:10;;;;;;;14.10;10.32;;;11.20;99.90;;;;;;5073615;28;20212;-80
2021/04/29 10:29:36;;;;;;;12.15;11.00;;;11.20;99.90;;;;;;5073777;28;20161;-79
2021/04/29 10:32:06;;;;;;;9.95;8.77;;;11.30;99.90;;;;;;5055486;28;20173;-79
2021/04/29 10:34:47;;;;;;;10.25;9.25;;;11.80;99.90;;;;;;5071634;28;20200;-81
2021/04/29 10:37:25;;;;;;;9.63;8.60;;;12.30;99.90;;;;;;5073634;28;20158;-79
2021/04/29 10:39:59;;;;;;;8.15;7.07;;;12.40;99.90;;;;;;5071599;28;20211;-77
2021/04/29 10:42:30;;;;;;;9.15;6.30;;;12.70;99.90;;;;;;5072934;28;20159;-77
2021/04/29 10:45:14;;;;;;;6.88;6.28;;;12.80;99.90;;;;;;5071353;28;20193;-76
2021/04/29 10:47:40;;;;;;;5.78;5.20;;;13.00;99.90;;;;;;5073533;28;20159;-77
2021/04/29 10:50:14;;;;;;;15.65;8.15;;;12.90;99.90;;;;;;5072677;28;20163;-78
2021/04/29 10:52:48;;;;;;;6.93;5.78;;;13.10;99.90;;;;;;5076898;28;20159;-77
2021/04/29 10:55:24;;;;;;;5.78;5.03;;;13.10;99.90;;;;;;5077435;28;20165;-79
2021/04/29 10:57:50;;;;;;;17.80;5.97;;;13.10;99.90;;;;;;5077173;28;20189;-79
2021/04/29 11:00:17;;;;;;;11.35;6.80;;;12.80;99.90;;;;;;5075869;28;20227;-80
2021/04/29 11:02:42;;;;;;;11.50;6.45;;;12.80;99.90;;;;;;5075547;28;20248;-81
2021/04/29 11:05:21;;;;;;;10.07;6.55;;;12.90;99.90;;;;;;5075561;28;20218;-76
2021/04/29 11:07:48;;;;;;;7.57;6.15;;;13.00;99.90;;;;;;5077149;28;20595;-78
2021/04/29 11:10:15;;;;;;;10.77;6.00;;;12.90;99.90;;;;;;5058916;28;20205;-78
2021/04/29 11:12:43;;;;;;;11.75;6.90;;;12.90;99.90;;;;;;5042188;28;20171;-77
2021/04/29 11:15:23;;;;;;;8.82;7.68;;;12.80;99.90;;;;;;5075798;28;20216;-80
2021/04/29 11:18:09;;;;;;;9.88;8.52;;;12.90;99.90;;;;;;5075309;28;20158;-76
2021/04/29 11:20:41;;;;;;;10.18;9.00;;;12.50;99.90;;;;;;5076074;28;20202;-77
2021/04/29 11:23:07;;;;;;;10.73;9.63;;;12.60;99.90;;;;;;5076916;28;20165;-76
2021/04/29 11:25:33;;;;;;;14.85;10.45;;;12.40;99.90;;;;;;5076218;28;20198;-77
2021/04/29 11:27:59;;;;;;;16.75;14.55;;;12.30;99.90;;;;;;5075274;28;20309;-76
2021/04/29 11:30:24;;;;;;;19.25;14.38;;;11.80;99.90;;;;;;5075595;28;20587;-76
2021/04/29 11:32:59;;;;;;;17.65;15.95;;;11.50;99.90;;;;;;5076449;28;20726;-78
2021/04/29 11:35:26;;;;;;;21.92;14.98;;;11.40;99.90;;;;;;5075570;28;20161;-77
2021/04/29 11:37:53;;;;;;;17.17;13.98;;;11.40;99.90;;;;;;5076864;28;20162;-77
2021/04/29 11:40:20;;;;;;;19.00;13.82;;;11.40;99.90;;;;;;5076490;28;20171;-77
2021/04/29 11:42:50;;;;;;;17.30;12.88;;;11.60;99.90;;;;;;5076453;28;20178;-77
2021/04/29 11:45:18;;;;;;;17.30;12.05;;;11.80;99.90;;;;;;5071318;28;20707;-77
2021/04/29 11:47:55;;;;;;;18.73;14.05;;;12.00;99.90;;;;;;5075396;28;20178;-77
2021/04/29 11:50:24;;;;;;;18.98;13.50;;;12.00;99.90;;;;;;5076870;28;20170;-77
2021/04/29 11:53:01;;;;;;;14.43;12.93;;;11.90;99.90;;;;;;5074606;28;20185;-77
2021/04/29 11:55:26;;;;;;;15.65;14.05;;;11.70;99.90;;;;;;5078009;28;20162;-77
2021/04/29 11:57:52;;;;;;;18.92;12.18;;;11.80;99.90;;;;;;5084269;28;20182;-78
2021/04/29 12:00:18;;;;;;;15.38;11.57;;;12.00;99.90;;;;;;5086241;28;20206;-77
2021/04/29 12:02:57;;;;;;;11.73;10.52;;;12.20;99.90;;;;;;5068059;28;20189;-80
2021/04/29 12:05:33;;;;;;;15.30;10.18;;;12.20;99.90;;;;;;5071302;28;20201;-79
2021/04/29 12:07:59;;;;;;;12.23;11.13;;;12.00;99.90;;;;;;5081324;28;20221;-78
2021/04/29 12:10:25;;;;;;;18.67;10.48;;;12.00;99.90;;;;;;5054449;28;20167;-80
2021/04/29 12:12:51;;;;;;;13.90;10.82;;;12.00;99.90;;;;;;5060302;28;20178;-80
2021/04/29 12:15:17;;;;;;;15.63;10.80;;;11.60;99.90;;;;;;5073823;28;20195;-79
2021/04/29 12:17:43;;;;;;;16.08;12.68;;;11.70;99.90;;;;;;5074126;28;20171;-78
2021/04/29 12:20:09;;;;;;;21.52;11.40;;;11.90;99.90;;;;;;5075759;28;20162;-79
2021/04/29 12:22:38;;;;;;;11.77;10.57;;;12.20;99.90;;;;;;5073768;28;20250;-79
2021/04/29 12:25:04;;;;;;;11.13;10.13;;;12.60;99.90;;;;;;5073915;28;20221;-78
2021/04/29 12:27:39;;;;;;;12.35;9.95;;;12.70;99.90;;;;;;5075857;28;20494;-79
2021/04/29 12:30:06;;;;;;;15.60;9.50;;;12.50;99.90;;;;;;5074461;28;20162;-79
2021/04/29 12:32:47;;;;;;;10.02;9.02;;;12.30;99.90;;;;;;5073937;28;20211;-79